Time;durP1;ratioP1;P1;durP2;ratioP2;P2;SDS_P1;SDS_P2;PMS_P1;PMS_P2;Temp;Humidity;BMP_temperature;BMP_pressure;BME280_temperature;BME280_humidity;BME280_pressure;Samples;Min_cycle;Max_cycle;Signal;HPM_P1;HPM_P2
2022/04/03 00:01:05;;;;;;;2.17;1.40;;;16.90;28.70;;;;;;5014243;28;20029;-87
2022/04/03 00:03:31;;;;;;;2.20;1.70;;;16.90;28.70;;;;;;5014668;28;20388;-85
2022/04/03 00:05:57;;;;;;;2.30;1.30;;;16.90;28.80;;;;;;5014890;28;20026;-87
2022/04/03 00:08:27;;;;;;;2.83;1.70;;;16.90;28.80;;;;;;5016437;28;20045;-86
2022/04/03 00:10:53;;;;;;;2.78;1.40;;;16.80;28.80;;;;;;5015543;28;20010;-84
2022/04/03 00:13:19;;;;;;;2.05;1.30;;;16.90;28.80;;;;;;5015840;28;20014;-87
2022/04/03 00:15:45;;;;;;;2.15;1.30;;;16.80;28.80;;;;;;5015942;28;20056;-85
2022/04/03 00:18:12;;;;;;;2.47;1.30;;;16.80;28.80;;;;;;5015615;28;20038;-86
2022/04/03 00:20:40;;;;;;;2.53;1.35;;;16.80;28.80;;;;;;5016759;28;20030;-88
2022/04/03 00:23:06;;;;;;;2.00;1.40;;;16.80;28.80;;;;;;5016104;28;20014;-87
2022/04/03 00:25:32;;;;;;;1.83;1.38;;;16.80;28.80;;;;;;4999503;28;20034;-86
2022/04/03 00:27:58;;;;;;;2.38;1.45;;;16.80;28.90;;;;;;5014519;28;20029;-85
2022/04/03 00:30:25;;;;;;;1.90;1.30;;;16.80;28.80;;;;;;5015233;28;20065;-85
2022/04/03 00:32:51;;;;;;;2.38;1.40;;;16.80;28.80;;;;;;5015394;28;20041;-86
2022/04/03 00:35:17;;;;;;;1.85;1.30;;;16.80;28.80;;;;;;5017396;28;20381;-84
2022/04/03 00:37:43;;;;;;;1.98;1.38;;;16.80;28.90;;;;;;5016227;28;20075;-85
2022/04/03 00:40:10;;;;;;;1.58;1.30;;;16.80;28.90;;;;;;5015983;28;20026;-86
2022/04/03 00:42:38;;;;;;;2.45;1.52;;;16.80;28.90;;;;;;5019365;28;20032;-84
2022/04/03 00:45:05;;;;;;;2.45;1.38;;;16.80;28.90;;;;;;5018661;28;20014;-88
2022/04/03 00:47:32;;;;;;;3.50;1.38;;;16.80;29.40;;;;;;5017938;28;20105;-83
2022/04/03 00:49:58;;;;;;;1.85;1.20;;;16.80;29.00;;;;;;5017822;28;20022;-86
2022/04/03 00:52:24;;;;;;;2.15;1.65;;;16.70;29.00;;;;;;5000983;28;20010;-88
2022/04/03 00:54:53;;;;;;;3.05;1.40;;;16.70;28.90;;;;;;5026592;28;20045;-84
2022/04/03 00:57:21;;;;;;;1.92;1.13;;;16.70;28.90;;;;;;5032145;28;20022;-84
2022/04/03 00:59:49;;;;;;;2.90;1.30;;;16.70;28.90;;;;;;5031355;28;20018;-84
2022/04/03 01:02:15;;;;;;;2.40;1.35;;;16.70;29.00;;;;;;5031522;28;20005;-85
2022/04/03 01:04:41;;;;;;;1.80;1.30;;;16.70;29.00;;;;;;5016696;28;20014;-86
2022/04/03 01:07:07;;;;;;;1.90;1.40;;;16.70;28.90;;;;;;5037022;28;20029;-85
2022/04/03 01:09:32;;;;;;;2.38;1.30;;;16.70;29.00;;;;;;5020219;28;20030;-87
2022/04/03 01:11:58;;;;;;;2.00;1.30;;;16.70;29.00;;;;;;5036472;28;20029;-86
2022/04/03 01:14:45;;;;;;;2.00;1.38;;;16.70;29.00;;;;;;5034742;28;20025;-85
2022/04/03 01:17:14;;;;;;;3.20;1.20;;;16.70;29.00;;;;;;5033803;28;20179;-82
2022/04/03 01:19:43;;;;;;;2.28;1.40;;;16.70;29.00;;;;;;5034193;28;20033;-84
2022/04/03 01:22:10;;;;;;;4.32;1.50;;;16.70;29.00;;;;;;5032846;28;20002;-84
2022/04/03 01:24:36;;;;;;;1.70;1.30;;;16.70;29.00;;;;;;5031893;28;20048;-83
2022/04/03 01:27:02;;;;;;;2.75;1.45;;;16.70;28.90;;;;;;5030278;28;20488;-81
2022/04/03 01:29:28;;;;;;;1.70;1.30;;;16.70;29.00;;;;;;5028971;28;20022;-82
2022/04/03 01:31:55;;;;;;;2.10;1.40;;;16.70;29.00;;;;;;5029674;28;20022;-83
2022/04/03 01:34:22;;;;;;;2.42;1.20;;;16.70;29.00;;;;;;5024706;28;20491;-83
2022/04/03 01:36:49;;;;;;;2.00;1.20;;;16.70;28.90;;;;;;5021591;28;20030;-83
2022/04/03 01:39:15;;;;;;;1.40;1.00;;;16.70;29.00;;;;;;5019351;28;20029;-82
2022/04/03 01:41:42;;;;;;;2.28;1.40;;;16.70;29.00;;;;;;5019220;28;20022;-82
2022/04/03 01:44:09;;;;;;;1.50;1.10;;;16.60;29.00;;;;;;5019682;28;20006;-83
2022/04/03 01:46:37;;;;;;;2.20;1.20;;;16.60;29.00;;;;;;5019520;28;20025;-82
2022/04/03 01:49:04;;;;;;;2.60;1.30;;;16.60;28.90;;;;;;5018719;28;20022;-87
2022/04/03 01:51:31;;;;;;;3.25;1.30;;;16.60;29.00;;;;;;5019061;28;20042;-87
2022/04/03 01:53:57;;;;;;;2.28;1.40;;;16.60;29.00;;;;;;5018411;28;20014;-89
2022/04/03 01:56:23;;;;;;;2.45;1.38;;;16.60;28.90;;;;;;5017476;28;20132;-84
2022/04/03 01:58:49;;;;;;;2.25;1.30;;;16.60;28.90;;;;;;5017107;28;20485;-85
2022/04/03 02:01:16;;;;;;;1.67;1.30;;;16.60;29.00;;;;;;5017328;28;20025;-87
2022/04/03 02:03:43;;;;;;;1.60;1.10;;;16.60;29.00;;;;;;5018562;28;20025;-86
2022/04/03 02:06:08;;;;;;;2.50;1.50;;;16.60;29.00;;;;;;5018122;28;20067;-84
2022/04/03 02:08:36;;;;;;;2.17;1.20;;;16.60;29.00;;;;;;5018082;28;20030;-88
2022/04/03 02:11:02;;;;;;;3.00;1.23;;;16.60;29.00;;;;;;5002205;28;20112;-87
2022/04/03 02:13:28;;;;;;;1.60;1.30;;;16.60;29.00;;;;;;5017238;28;20469;-88
2022/04/03 02:15:54;;;;;;;1.77;1.20;;;16.60;29.00;;;;;;5015465;28;20028;-82
2022/04/03 02:18:21;;;;;;;1.85;1.38;;;16.60;29.00;;;;;;5015304;28;20044;-85
2022/04/03 02:20:48;;;;;;;2.13;1.30;;;16.60;29.00;;;;;;5016098;28;20465;-84
2022/04/03 02:23:16;;;;;;;1.80;1.20;;;16.60;29.40;;;;;;5014769;28;20046;-84
2022/04/03 02:25:41;;;;;;;2.17;1.30;;;16.60;29.00;;;;;;5015257;28;20573;-83
2022/04/03 02:28:12;;;;;;;2.28;1.42;;;16.60;29.00;;;;;;5015575;28;20057;-86
2022/04/03 02:30:38;;;;;;;3.22;1.83;;;16.60;29.00;;;;;;4999724;28;20021;-87
2022/04/03 02:33:04;;;;;;;2.05;1.10;;;16.60;29.10;;;;;;4999052;28;20018;-83
2022/04/03 02:35:32;;;;;;;1.90;1.20;;;16.60;29.00;;;;;;5023507;28;20136;-83
2022/04/03 02:37:59;;;;;;;1.90;1.15;;;16.50;29.00;;;;;;5024667;28;20489;-81
2022/04/03 02:40:24;;;;;;;1.73;1.10;;;16.50;29.00;;;;;;5022448;28;20026;-84
2022/04/03 02:42:52;;;;;;;1.58;1.25;;;16.60;29.10;;;;;;5023605;28;20041;-84
2022/04/03 02:45:18;;;;;;;1.92;1.38;;;16.50;29.00;;;;;;5007273;28;20033;-86
2022/04/03 02:47:54;;;;;;;2.45;1.40;;;16.50;29.00;;;;;;5022400;28;20030;-85
2022/04/03 02:50:21;;;;;;;1.95;1.20;;;16.50;29.10;;;;;;5025349;28;20472;-83
2022/04/03 02:52:48;;;;;;;1.75;1.20;;;16.50;29.10;;;;;;5027369;28;20470;-83
2022/04/03 02:55:14;;;;;;;2.47;1.33;;;16.50;29.00;;;;;;5028295;28;20029;-84
2022/04/03 02:57:39;;;;;;;3.28;1.50;;;16.50;29.10;;;;;;5028055;28;20136;-84
2022/04/03 03:00:08;;;;;;;2.40;1.40;;;16.50;29.10;;;;;;5014779;28;20449;-87
2022/04/03 03:02:35;;;;;;;1.48;1.30;;;16.50;29.10;;;;;;5030662;28;20029;-85
2022/04/03 03:05:04;;;;;;;2.17;1.17;;;16.50;29.10;;;;;;5029873;28;20018;-84
2022/04/03 03:07:37;;;;;;;1.98;1.13;;;16.50;29.10;;;;;;5028948;28;20037;-86
2022/04/03 03:10:08;;;;;;;1.52;1.17;;;16.50;29.10;;;;;;5029489;28;20022;-80
2022/04/03 03:12:35;;;;;;;1.83;1.20;;;16.50;29.10;;;;;;5028509;28;20491;-83
2022/04/03 03:15:04;;;;;;;1.88;1.40;;;16.50;29.10;;;;;;5029615;28;20014;-83
2022/04/03 03:17:30;;;;;;;2.08;1.30;;;16.50;29.10;;;;;;5027975;28;20030;-83
2022/04/03 03:19:58;;;;;;;1.30;1.00;;;16.50;29.10;;;;;;5009594;28;20022;-85
2022/04/03 03:22:24;;;;;;;4.97;1.30;;;16.50;29.10;;;;;;5019594;28;20108;-83
2022/04/03 03:24:51;;;;;;;1.55;1.10;;;16.50;29.10;;;;;;5015484;28;20026;-81
2022/04/03 03:27:16;;;;;;;2.45;1.30;;;16.50;29.10;;;;;;5014453;28;20010;-82
2022/04/03 03:29:42;;;;;;;2.30;1.20;;;16.50;29.10;;;;;;5012956;28;20017;-82
2022/04/03 03:32:09;;;;;;;1.90;1.30;;;16.40;29.10;;;;;;5013724;28;20497;-82
2022/04/03 03:34:35;;;;;;;1.80;1.20;;;16.40;29.10;;;;;;5013536;28;20552;-83
2022/04/03 03:37:01;;;;;;;1.95;1.38;;;16.40;29.10;;;;;;5013986;28;20022;-85
2022/04/03 03:39:28;;;;;;;4.10;1.20;;;16.50;29.20;;;;;;5014025;28;20565;-83
2022/04/03 03:41:55;;;;;;;1.83;1.25;;;16.50;29.20;;;;;;5013930;28;20113;-87
2022/04/03 03:44:25;;;;;;;2.92;1.70;;;16.40;29.10;;;;;;5013944;28;20024;-88
2022/04/03 03:46:52;;;;;;;1.67;1.30;;;16.40;29.10;;;;;;5015283;28;20569;-85
2022/04/03 03:49:18;;;;;;;2.63;1.20;;;16.40;29.20;;;;;;5013895;28;20547;-86
2022/04/03 03:51:44;;;;;;;2.92;1.30;;;16.50;29.20;;;;;;5013332;28;20511;-84
2022/04/03 03:54:11;;;;;;;2.92;1.50;;;16.40;29.20;;;;;;5013573;28;20105;-83
2022/04/03 03:56:39;;;;;;;2.50;1.33;;;16.40;29.20;;;;;;5014347;28;20459;-83
2022/04/03 03:59:05;;;;;;;2.33;1.50;;;16.40;29.20;;;;;;5013094;28;20022;-88
2022/04/03 04:01:31;;;;;;;2.50;1.42;;;16.40;29.30;;;;;;5013635;28;20034;-87
2022/04/03 04:03:57;;;;;;;1.52;1.10;;;16.40;29.30;;;;;;5015066;28;20065;-86
2022/04/03 04:06:23;;;;;;;3.17;1.50;;;16.40;29.30;;;;;;5016944;28;20395;-84
2022/04/03 04:08:49;;;;;;;2.35;1.25;;;16.40;29.30;;;;;;5016066;28;20038;-86
2022/04/03 04:11:15;;;;;;;2.05;1.30;;;16.40;29.30;;;;;;5016967;28;20018;-87
2022/04/03 04:13:42;;;;;;;2.50;1.38;;;16.40;29.30;;;;;;5016699;28;20370;-84
2022/04/03 04:16:09;;;;;;;2.13;1.30;;;16.40;29.30;;;;;;5017569;28;20015;-84
2022/04/03 04:18:36;;;;;;;2.58;1.10;;;16.40;29.30;;;;;;5017153;28;20042;-85
2022/04/03 04:21:06;;;;;;;2.17;1.20;;;16.40;29.30;;;;;;5019208;28;20108;-84
2022/04/03 04:23:32;;;;;;;2.05;1.30;;;16.40;29.30;;;;;;5003022;28;20034;-86
2022/04/03 04:25:59;;;;;;;2.42;1.35;;;16.30;29.40;;;;;;5001994;28;20014;-88
2022/04/03 04:28:25;;;;;;;2.78;1.50;;;16.40;29.40;;;;;;5016884;28;20036;-84
2022/04/03 04:30:51;;;;;;;1.65;1.13;;;16.40;29.40;;;;;;5017115;28;20026;-86
2022/04/03 04:33:17;;;;;;;2.55;1.40;;;16.40;29.30;;;;;;5017200;28;20066;-83
2022/04/03 04:35:44;;;;;;;3.38;1.40;;;16.40;29.30;;;;;;5015639;28;20026;-82
2022/04/03 04:38:09;;;;;;;1.90;1.23;;;16.40;29.40;;;;;;5015264;28;20041;-82
2022/04/03 04:40:35;;;;;;;1.58;1.30;;;16.40;29.40;;;;;;5017852;28;20389;-84
2022/04/03 04:43:01;;;;;;;2.13;1.30;;;16.30;29.40;;;;;;5019916;28;20026;-83
2022/04/03 04:45:27;;;;;;;1.98;1.50;;;16.30;29.50;;;;;;5020128;28;20053;-82
2022/04/03 04:47:59;;;;;;;2.65;1.40;;;16.30;29.50;;;;;;5019154;28;20448;-83
2022/04/03 04:50:26;;;;;;;2.20;1.42;;;16.30;29.60;;;;;;5004197;28;20010;-83
2022/04/03 04:52:51;;;;;;;2.28;1.50;;;16.30;29.50;;;;;;5002916;28;20022;-87
2022/04/03 04:55:19;;;;;;;2.25;1.30;;;16.30;29.60;;;;;;5019105;28;20385;-86
2022/04/03 04:57:52;;;;;;;2.08;1.40;;;16.30;29.60;;;;;;5020581;28;20037;-85
2022/04/03 05:00:20;;;;;;;2.72;1.42;;;16.30;29.50;;;;;;5019435;28;20025;-82
2022/04/03 05:02:46;;;;;;;1.92;1.30;;;16.30;29.60;;;;;;5020750;28;20014;-81
2022/04/03 05:05:19;;;;;;;2.22;1.33;;;16.30;29.50;;;;;;5018778;28;20030;-82
2022/04/03 05:07:45;;;;;;;1.85;1.30;;;16.30;29.60;;;;;;5017920;28;20048;-85
2022/04/03 05:10:12;;;;;;;2.65;1.55;;;16.30;29.60;;;;;;5017945;28;20057;-86
2022/04/03 05:12:39;;;;;;;2.22;1.30;;;16.30;29.60;;;;;;5017724;28;20006;-82
2022/04/03 05:15:11;;;;;;;2.53;1.50;;;16.30;29.70;;;;;;5019606;28;20018;-85
2022/04/03 05:17:38;;;;;;;2.50;1.40;;;16.30;29.70;;;;;;5017721;28;20054;-85
2022/04/03 05:20:04;;;;;;;1.48;1.13;;;16.30;29.70;;;;;;5001408;28;20056;-81
2022/04/03 05:22:31;;;;;;;2.17;1.50;;;16.20;29.70;;;;;;5019134;28;20018;-80
2022/04/03 05:24:58;;;;;;;2.20;1.40;;;16.30;29.70;;;;;;5017494;28;20025;-81
2022/04/03 05:27:24;;;;;;;2.28;1.50;;;16.30;29.60;;;;;;5034324;28;20542;-83
2022/04/03 05:29:50;;;;;;;2.45;1.50;;;16.30;29.70;;;;;;5017574;28;20014;-81
2022/04/03 05:32:25;;;;;;;2.85;1.38;;;16.30;29.70;;;;;;5018205;28;20046;-81
2022/04/03 05:34:51;;;;;;;2.97;1.33;;;16.30;29.70;;;;;;5000723;28;20014;-83
2022/04/03 05:37:17;;;;;;;1.83;1.40;;;16.30;29.70;;;;;;4999434;28;20113;-81
2022/04/03 05:39:45;;;;;;;2.13;1.17;;;16.30;29.70;;;;;;5016052;28;20022;-83
2022/04/03 05:42:13;;;;;;;1.23;1.13;;;16.30;30.10;;;;;;5016975;28;20531;-79
2022/04/03 05:44:39;;;;;;;2.58;1.35;;;16.30;29.70;;;;;;5015547;28;20388;-80
2022/04/03 05:47:06;;;;;;;1.88;1.50;;;16.30;29.70;;;;;;5015699;28;20010;-79
2022/04/03 05:49:32;;;;;;;2.85;1.50;;;16.70;29.50;;;;;;5015377;28;20030;-80
2022/04/03 05:51:59;;;;;;;2.47;1.33;;;16.80;29.20;;;;;;5014579;28;20499;-79
2022/04/03 05:54:25;;;;;;;3.03;1.58;;;16.80;29.20;;;;;;5017156;28;20029;-79
2022/04/03 05:56:51;;;;;;;2.75;1.50;;;17.00;29.10;;;;;;5015820;28;20493;-83
2022/04/03 05:59:19;;;;;;;2.28;1.40;;;17.40;28.70;;;;;;5017049;28;20022;-80
2022/04/03 06:01:46;;;;;;;2.33;1.63;;;17.30;28.50;;;;;;5015591;28;20551;-84
2022/04/03 06:04:13;;;;;;;2.25;1.33;;;17.30;28.60;;;;;;5015235;28;20484;-84
2022/04/03 06:06:40;;;;;;;2.20;1.27;;;17.20;28.50;;;;;;5014596;28;20497;-84
2022/04/03 06:09:09;;;;;;;2.13;1.40;;;17.30;28.50;;;;;;5015564;28;20060;-80
2022/04/03 06:11:35;;;;;;;3.17;1.27;;;17.40;28.40;;;;;;5016092;28;20057;-80
2022/04/03 06:14:01;;;;;;;2.75;1.60;;;17.40;28.30;;;;;;5014778;28;20377;-85
2022/04/03 06:16:27;;;;;;;2.38;1.50;;;17.60;28.20;;;;;;5014587;28;20084;-82
2022/04/03 06:18:55;;;;;;;1.77;1.20;;;17.70;28.00;;;;;;5014363;28;20424;-81
2022/04/03 06:21:21;;;;;;;1.92;1.30;;;17.80;27.90;;;;;;5015054;28;20105;-85
2022/04/03 06:23:47;;;;;;;2.38;1.40;;;17.90;27.80;;;;;;5015236;28;20049;-83
2022/04/03 06:26:12;;;;;;;2.58;1.60;;;18.10;27.60;;;;;;5014869;28;20058;-85
2022/04/03 06:28:38;;;;;;;2.42;1.50;;;18.20;27.50;;;;;;5014814;28;20022;-82
2022/04/03 06:31:05;;;;;;;2.58;1.50;;;18.30;27.40;;;;;;5015259;28;20018;-82
2022/04/03 06:33:32;;;;;;;2.83;1.60;;;18.50;27.30;;;;;;5014540;28;20026;-83
2022/04/03 06:36:00;;;;;;;1.88;1.27;;;18.60;27.20;;;;;;5014053;28;20022;-82
2022/04/03 06:38:26;;;;;;;2.63;1.40;;;18.70;27.10;;;;;;4998043;28;20026;-86
2022/04/03 06:40:54;;;;;;;4.13;1.52;;;18.80;27.00;;;;;;5013815;28;20040;-82
2022/04/03 06:43:24;;;;;;;2.63;1.27;;;18.90;26.90;;;;;;5014010;28;20022;-82
2022/04/03 06:45:51;;;;;;;2.92;1.40;;;18.90;27.00;;;;;;5014889;28;20059;-83
2022/04/03 06:48:17;;;;;;;2.38;1.40;;;19.00;27.00;;;;;;5013870;28;20034;-82
2022/04/03 06:50:45;;;;;;;2.03;1.40;;;19.00;26.90;;;;;;5014554;28;20022;-82
2022/04/03 06:53:12;;;;;;;1.48;1.17;;;19.00;27.00;;;;;;5013802;28;20018;-83
2022/04/03 06:55:37;;;;;;;2.75;1.50;;;19.10;27.00;;;;;;4997158;28;20392;-87
2022/04/03 06:58:03;;;;;;;2.58;1.23;;;19.10;26.90;;;;;;5013355;28;20080;-88
2022/04/03 07:00:30;;;;;;;2.10;1.42;;;19.30;26.80;;;;;;5013429;28;20072;-84
2022/04/03 07:02:56;;;;;;;1.83;1.30;;;19.40;26.70;;;;;;5013080;28;20065;-83
2022/04/03 07:05:23;;;;;;;2.72;1.48;;;19.50;26.50;;;;;;5013406;28;20050;-83
2022/04/03 07:07:52;;;;;;;3.08;1.50;;;19.60;26.40;;;;;;5014290;28;20105;-83
2022/04/03 07:10:19;;;;;;;2.40;1.42;;;19.70;26.30;;;;;;5013089;28;20021;-83
2022/04/03 07:12:46;;;;;;;1.80;1.23;;;19.80;26.20;;;;;;5014263;28;20083;-83
2022/04/03 07:15:14;;;;;;;2.17;1.42;;;19.90;26.20;;;;;;5013310;28;20544;-85
2022/04/03 07:17:43;;;;;;;2.00;1.33;;;19.90;26.10;;;;;;5013434;28;20065;-84
2022/04/03 07:20:13;;;;;;;2.28;1.30;;;20.00;26.00;;;;;;5015119;28;20029;-87
2022/04/03 07:22:40;;;;;;;1.80;1.30;;;20.20;26.00;;;;;;5017275;28;20018;-86
2022/04/03 07:25:07;;;;;;;2.88;1.30;;;20.30;25.90;;;;;;4999341;28;20018;-85
2022/04/03 07:27:34;;;;;;;2.70;1.50;;;20.30;25.80;;;;;;5015425;28;20026;-84
2022/04/03 07:30:01;;;;;;;1.67;1.30;;;20.40;25.70;;;;;;4999600;28;20108;-84
2022/04/03 07:32:27;;;;;;;2.03;1.17;;;20.50;25.70;;;;;;5015581;28;20026;-87
2022/04/03 07:34:53;;;;;;;1.90;1.40;;;20.60;25.60;;;;;;4997881;28;20509;-83
2022/04/03 07:37:19;;;;;;;1.70;1.30;;;20.70;25.60;;;;;;5014502;28;20014;-84
2022/04/03 07:39:45;;;;;;;2.30;1.25;;;20.70;25.50;;;;;;5013858;28;20052;-82
2022/04/03 07:42:12;;;;;;;2.70;1.20;;;20.70;25.50;;;;;;5013760;28;20021;-84
2022/04/03 07:44:38;;;;;;;2.03;1.30;;;20.80;25.40;;;;;;5014757;28;20014;-83
2022/04/03 07:47:07;;;;;;;2.53;1.20;;;20.80;25.40;;;;;;5013646;28;20102;-83
2022/04/03 07:49:33;;;;;;;1.60;1.20;;;20.90;25.40;;;;;;5016125;28;20084;-83
2022/04/03 07:51:59;;;;;;;3.58;1.38;;;20.90;25.30;;;;;;4999546;28;20105;-83
2022/04/03 07:54:24;;;;;;;1.88;1.17;;;20.90;25.30;;;;;;5015633;28;20029;-83
2022/04/03 07:56:50;;;;;;;2.42;1.33;;;21.00;25.30;;;;;;5014538;28;20024;-83
2022/04/03 07:59:17;;;;;;;2.30;1.40;;;21.10;25.30;;;;;;5014120;28;20018;-87
2022/04/03 08:01:43;;;;;;;1.92;1.30;;;21.10;25.20;;;;;;5015715;28;20014;-81
2022/04/03 08:04:10;;;;;;;2.33;1.20;;;21.20;25.20;;;;;;5015841;28;20022;-85
2022/04/03 08:06:37;;;;;;;1.45;1.15;;;21.20;25.10;;;;;;5018845;28;20019;-84
2022/04/03 08:09:02;;;;;;;2.15;1.40;;;21.30;25.10;;;;;;5018292;28;20103;-86
2022/04/03 08:11:29;;;;;;;2.30;1.13;;;21.30;25.00;;;;;;5018482;28;20045;-84
2022/04/03 08:13:54;;;;;;;2.17;1.40;;;21.40;25.00;;;;;;5001616;28;20556;-83
2022/04/03 08:16:20;;;;;;;1.80;1.30;;;21.40;25.00;;;;;;5022536;28;20025;-83
2022/04/03 08:18:46;;;;;;;2.85;1.50;;;21.40;25.00;;;;;;5020715;28;20050;-81
2022/04/03 08:21:13;;;;;;;1.83;1.10;;;21.50;25.40;;;;;;5018188;28;20042;-81
2022/04/03 08:23:40;;;;;;;1.80;1.10;;;21.50;24.90;;;;;;5018902;28;20010;-82
2022/04/03 08:26:06;;;;;;;2.03;1.30;;;21.50;24.90;;;;;;5017924;28;20029;-82
2022/04/03 08:28:32;;;;;;;2.33;1.30;;;21.60;24.90;;;;;;5018306;28;20029;-81
2022/04/03 08:31:01;;;;;;;2.65;1.23;;;21.60;24.90;;;;;;5019451;28;20021;-81
2022/04/03 08:33:27;;;;;;;1.98;1.40;;;21.60;24.90;;;;;;5001661;28;20018;-83
2022/04/03 08:35:53;;;;;;;2.58;1.40;;;21.70;24.90;;;;;;5018730;28;20010;-80
2022/04/03 08:38:19;;;;;;;1.52;1.05;;;21.70;24.80;;;;;;5019048;28;20029;-83
2022/04/03 08:40:45;;;;;;;1.48;1.13;;;21.70;24.80;;;;;;5018537;28;20025;-81
2022/04/03 08:43:11;;;;;;;2.28;1.33;;;21.70;24.80;;;;;;5002782;28;20018;-80
2022/04/03 08:45:39;;;;;;;1.70;1.30;;;21.80;24.80;;;;;;5019270;28;20085;-83
2022/04/03 08:48:05;;;;;;;1.70;1.20;;;21.80;24.80;;;;;;5002432;28;20033;-80
2022/04/03 08:50:34;;;;;;;2.80;1.40;;;21.80;24.80;;;;;;5018539;28;20032;-80
2022/04/03 08:53:02;;;;;;;2.17;1.17;;;21.80;24.70;;;;;;5018504;28;20093;-81
2022/04/03 08:55:29;;;;;;;1.83;1.10;;;21.80;24.80;;;;;;5018761;28;20006;-80
2022/04/03 08:57:56;;;;;;;2.28;1.25;;;21.90;24.80;;;;;;5018121;28;20033;-79
2022/04/03 09:00:23;;;;;;;1.88;1.10;;;21.90;24.70;;;;;;5018992;28;20018;-79
2022/04/03 09:02:52;;;;;;;1.48;1.00;;;21.90;24.60;;;;;;5001924;28;20025;-79
2022/04/03 09:05:18;;;;;;;3.28;1.20;;;22.00;24.70;;;;;;5016742;28;20087;-83
2022/04/03 09:07:59;;;;;;;3.65;1.10;;;22.00;24.70;;;;;;5017201;28;20065;-80
2022/04/03 09:10:28;;;;;;;1.85;1.10;;;22.10;24.70;;;;;;5000661;28;20014;-81
2022/04/03 09:12:55;;;;;;;1.58;1.17;;;22.10;24.60;;;;;;5016730;28;20029;-80
2022/04/03 09:15:22;;;;;;;2.63;1.42;;;22.10;24.60;;;;;;5016988;28;20022;-80
2022/04/03 09:17:50;;;;;;;1.55;0.95;;;22.10;24.60;;;;;;4999174;28;20058;-80
2022/04/03 09:20:17;;;;;;;1.90;1.00;;;22.10;24.60;;;;;;5016967;28;20077;-81
2022/04/03 09:22:44;;;;;;;1.50;1.00;;;22.20;24.50;;;;;;5017826;28;20477;-80
2022/04/03 09:25:11;;;;;;;1.40;1.00;;;22.20;24.50;;;;;;4999707;28;20472;-81
2022/04/03 09:27:50;;;;;;;1.95;1.25;;;22.10;24.50;;;;;;5015726;28;20033;-82
2022/04/03 09:30:17;;;;;;;1.58;1.08;;;22.20;24.50;;;;;;5016758;28;20040;-84
2022/04/03 09:32:55;;;;;;;1.67;1.20;;;22.20;24.50;;;;;;5016254;28;20018;-80
2022/04/03 09:35:24;;;;;;;1.33;0.90;;;22.20;24.50;;;;;;5017286;28;20041;-80
2022/04/03 09:38:10;;;;;;;1.65;1.10;;;22.20;24.40;;;;;;5017470;28;20086;-81
2022/04/03 09:40:39;;;;;;;2.40;1.10;;;22.20;24.40;;;;;;5017235;28;20018;-81
2022/04/03 09:43:22;;;;;;;1.73;1.00;;;22.20;24.40;;;;;;5017925;28;20029;-80
2022/04/03 09:45:49;;;;;;;2.83;1.10;;;22.20;24.30;;;;;;5018180;28;20022;-81
2022/04/03 09:48:22;;;;;;;1.92;0.93;;;22.20;24.30;;;;;;4999875;28;20026;-80
2022/04/03 09:50:55;;;;;;;2.88;0.93;;;22.20;24.30;;;;;;5016660;28;20014;-85
2022/04/03 09:53:22;;;;;;;1.40;0.90;;;22.20;24.30;;;;;;5015031;28;20029;-83
2022/04/03 09:55:49;;;;;;;2.15;0.98;;;22.30;24.30;;;;;;5016486;28;20156;-83
2022/04/03 09:58:16;;;;;;;1.65;1.02;;;22.30;24.20;;;;;;5014948;28;20080;-80
2022/04/03 10:00:42;;;;;;;1.83;0.90;;;22.20;24.20;;;;;;5013998;28;20018;-84
2022/04/03 10:03:12;;;;;;;3.33;1.08;;;22.20;24.20;;;;;;5031135;28;20010;-81
2022/04/03 10:05:39;;;;;;;;;;;22.20;24.20;;;;;;5017533;28;20112;-80
2022/04/03 10:08:08;;;;;;;1.30;0.80;;;22.10;24.20;;;;;;5016231;28;19914;-80
2022/04/03 10:10:35;;;;;;;2.65;1.40;;;22.00;24.20;;;;;;5017083;28;20497;-80
2022/04/03 10:13:01;;;;;;;1.85;0.90;;;21.90;24.30;;;;;;5017099;28;20018;-80
2022/04/03 10:15:28;;;;;;;1.88;0.90;;;21.80;24.40;;;;;;5017151;28;20029;-84
2022/04/03 10:17:55;;;;;;;1.67;0.85;;;21.80;24.50;;;;;;5016560;28;20075;-81
2022/04/03 10:20:25;;;;;;;1.88;1.08;;;21.70;24.40;;;;;;5000835;28;20064;-80
2022/04/03 10:22:51;;;;;;;;;;;21.80;24.50;;;;;;5000943;28;20034;-81
2022/04/03 10:25:19;;;;;;;2.22;0.80;;;21.70;24.40;;;;;;5018016;28;19933;-80
2022/04/03 10:27:46;;;;;;;1.48;0.80;;;21.70;24.40;;;;;;5016827;28;20426;-81
2022/04/03 10:30:14;;;;;;;1.20;0.80;;;21.70;24.40;;;;;;5016888;28;20112;-79
2022/04/03 10:32:41;;;;;;;1.35;0.88;;;21.70;24.30;;;;;;5016883;28;20495;-80
2022/04/03 10:35:09;;;;;;;1.50;0.90;;;21.80;24.20;;;;;;5016665;28;20432;-81
2022/04/03 10:37:42;;;;;;;1.90;0.95;;;21.70;24.10;;;;;;4999203;28;20010;-81
2022/04/03 10:40:17;;;;;;;1.30;0.90;;;21.80;24.10;;;;;;5016164;28;20014;-81
2022/04/03 10:42:50;;;;;;;1.50;0.70;;;21.70;24.10;;;;;;5000049;28;20113;-80
2022/04/03 10:45:18;;;;;;;1.27;0.80;;;21.80;24.20;;;;;;5015904;28;20028;-81
2022/04/03 10:47:44;;;;;;;1.55;0.80;;;21.80;24.10;;;;;;5015786;28;20511;-80
2022/04/03 10:50:11;;;;;;;0.70;0.60;;;21.60;24.10;;;;;;5015971;28;20030;-81
2022/04/03 10:52:38;;;;;;;1.70;0.70;;;21.60;24.10;;;;;;5014623;28;20006;-80
2022/04/03 10:55:23;;;;;;;1.05;0.85;;;21.50;24.20;;;;;;5016151;28;20049;-80
2022/04/03 10:57:53;;;;;;;1.08;0.70;;;21.40;24.20;;;;;;4998318;28;20061;-80
2022/04/03 11:00:20;;;;;;;1.52;0.90;;;21.30;24.30;;;;;;4999216;28;20095;-80
2022/04/03 11:02:53;;;;;;;0.85;0.68;;;21.20;24.40;;;;;;5015328;28;20030;-82
2022/04/03 11:05:24;;;;;;;1.60;0.80;;;21.10;24.40;;;;;;5014315;28;20412;-81
2022/04/03 11:08:02;;;;;;;1.48;0.70;;;21.00;24.50;;;;;;5016330;28;20384;-80
2022/04/03 11:10:52;;;;;;;1.10;0.70;;;20.90;24.60;;;;;;5014545;28;20018;-81
2022/04/03 11:13:20;;;;;;;1.05;0.60;;;20.80;24.60;;;;;;5014329;28;20029;-80
2022/04/03 11:15:56;;;;;;;1.05;0.60;;;20.80;24.70;;;;;;5013793;28;20104;-78
2022/04/03 11:18:36;;;;;;;1.05;0.75;;;20.70;24.70;;;;;;5013314;28;20049;-79
2022/04/03 11:21:24;;;;;;;1.50;0.90;;;20.60;24.70;;;;;;5014667;28;20358;-79
2022/04/03 11:23:52;;;;;;;1.40;0.80;;;20.60;24.80;;;;;;5014649;28;20265;-84
2022/04/03 11:26:19;;;;;;;1.23;0.70;;;20.60;24.80;;;;;;5014801;28;20010;-79
2022/04/03 11:28:45;;;;;;;0.90;0.70;;;20.50;24.80;;;;;;5015421;28;20026;-79
2022/04/03 11:31:12;;;;;;;1.25;0.70;;;20.50;24.80;;;;;;5015190;28;20029;-81
2022/04/03 11:33:38;;;;;;;1.50;0.80;;;20.50;24.80;;;;;;5014229;28;20021;-83
2022/04/03 11:36:09;;;;;;;1.48;0.70;;;20.50;24.80;;;;;;5014716;28;20385;-79
2022/04/03 11:38:42;;;;;;;1.25;0.80;;;20.50;24.80;;;;;;5031030;28;20108;-78
2022/04/03 11:41:30;;;;;;;1.30;0.60;;;20.50;24.80;;;;;;5014273;28;20516;-79
2022/04/03 11:44:02;;;;;;;1.77;0.82;;;20.40;24.80;;;;;;5014904;28;20026;-79
2022/04/03 11:46:29;;;;;;;1.55;0.60;;;20.40;24.80;;;;;;5015081;28;20144;-80
2022/04/03 11:48:55;;;;;;;1.40;0.80;;;20.40;25.00;;;;;;5015204;28;20045;-78
2022/04/03 11:51:21;;;;;;;0.85;0.60;;;20.30;25.00;;;;;;5015139;28;20381;-78
2022/04/03 11:53:55;;;;;;;2.20;0.85;;;20.30;25.00;;;;;;5014966;28;20010;-82
2022/04/03 11:56:21;;;;;;;1.10;0.50;;;20.30;25.10;;;;;;4999378;28;20168;-78
2022/04/03 11:58:49;;;;;;;1.63;0.73;;;20.20;25.10;;;;;;5014458;28;20018;-81
2022/04/03 12:01:24;;;;;;;1.45;0.60;;;20.20;25.20;;;;;;4997743;28;20072;-80
2022/04/03 12:03:57;;;;;;;0.93;0.50;;;20.10;25.10;;;;;;5014751;28;20018;-79
2022/04/03 12:06:27;;;;;;;1.40;0.60;;;20.10;25.20;;;;;;4997353;28;20096;-78
2022/04/03 12:08:54;;;;;;;1.80;0.77;;;20.00;25.20;;;;;;5014707;28;20545;-80
2022/04/03 12:11:25;;;;;;;1.10;0.70;;;20.00;25.30;;;;;;5015131;28;20022;-78
2022/04/03 12:13:58;;;;;;;0.85;0.60;;;20.00;25.30;;;;;;5014049;28;20010;-79
2022/04/03 12:16:29;;;;;;;0.90;0.60;;;19.90;25.40;;;;;;5013670;28;20018;-82
2022/04/03 12:19:01;;;;;;;2.13;0.60;;;19.90;25.40;;;;;;5013714;28;20050;-80
2022/04/03 12:21:45;;;;;;;1.17;0.60;;;19.90;25.50;;;;;;5013163;28;20018;-80
2022/04/03 12:24:18;;;;;;;1.10;0.60;;;19.80;25.50;;;;;;5013329;28;20479;-82
2022/04/03 12:26:59;;;;;;;0.60;0.60;;;19.80;25.60;;;;;;5013581;28;20121;-81
2022/04/03 12:29:31;;;;;;;1.52;0.77;;;19.70;25.60;;;;;;5014385;28;20122;-81
2022/04/03 12:32:08;;;;;;;1.05;0.60;;;19.70;25.70;;;;;;5013428;28;20041;-85
2022/04/03 12:34:36;;;;;;;2.78;0.85;;;19.60;25.70;;;;;;5014050;28;20049;-81
2022/04/03 12:37:02;;;;;;;1.42;0.60;;;19.50;25.80;;;;;;5013589;28;20101;-82
2022/04/03 12:39:37;;;;;;;0.80;0.60;;;19.50;25.90;;;;;;5013466;28;20021;-83
2022/04/03 12:42:20;;;;;;;1.48;0.60;;;19.50;25.90;;;;;;5014072;28;20385;-82
2022/04/03 12:44:58;;;;;;;1.17;0.50;;;19.50;25.90;;;;;;5013402;28;20022;-81
2022/04/03 12:47:32;;;;;;;0.88;0.60;;;19.50;26.00;;;;;;5015270;28;20080;-80
2022/04/03 12:50:06;;;;;;;1.95;0.60;;;19.40;26.00;;;;;;5015468;28;20057;-80
2022/04/03 12:52:39;;;;;;;1.80;0.85;;;19.40;26.00;;;;;;5016486;28;20018;-81